createdAt,value
2022-12-02T00:00:55.366Z,39.30
2022-12-02T00:03:25.841Z,43.33
2022-12-02T00:05:56.225Z,39.30
2022-12-02T00:08:25.869Z,34.53
2022-12-02T00:10:56.356Z,37.40
2022-12-02T00:13:27.360Z,34.60
2022-12-02T00:15:59.426Z,33.57
2022-12-02T00:18:28.313Z,30.23
2022-12-02T00:20:56.649Z,34.50
2022-12-02T00:23:25.380Z,35.23
2022-12-02T00:25:55.024Z,33.90
2022-12-02T00:28:23.410Z,43.40
2022-12-02T00:30:51.459Z,26.50
2022-12-02T00:33:21.256Z,29.53
2022-12-02T00:35:49.259Z,31.90
2022-12-02T00:38:17.308Z,30.87
2022-12-02T00:40:45.453Z,29.47
2022-12-02T00:43:30.891Z,31.30
2022-12-02T00:46:16.594Z,29.50
2022-12-02T00:48:45.974Z,29.67
2022-12-02T00:51:14.084Z,29.63
2022-12-02T00:53:42.082Z,32.27
2022-12-02T00:56:10.109Z,30.90
2022-12-02T00:58:38.065Z,26.00
2022-12-02T01:01:06.294Z,28.10
2022-12-02T01:03:34.290Z,29.43
2022-12-02T01:06:03.876Z,25.47
2022-12-02T01:08:32.112Z,24.83
2022-12-02T01:11:00.363Z,24.83
2022-12-02T01:13:29.486Z,24.50
2022-12-02T01:15:57.470Z,27.67
2022-12-02T01:18:25.540Z,29.53
2022-12-02T01:20:53.828Z,26.67
2022-12-02T01:23:23.281Z,24.33
2022-12-02T01:25:51.289Z,24.33
2022-12-02T01:28:19.373Z,27.47
2022-12-02T01:30:47.752Z,24.40
2022-12-02T01:33:15.837Z,29.70
2022-12-02T01:35:43.834Z,28.00
2022-12-02T01:38:14.159Z,29.67
2022-12-02T01:40:43.680Z,27.47
2022-12-02T01:43:12.179Z,30.70
2022-12-02T01:45:40.415Z,29.63
2022-12-02T01:48:08.972Z,29.73
2022-12-02T01:50:37.269Z,27.10
2022-12-02T01:53:05.287Z,29.53
2022-12-02T01:55:33.842Z,24.50
2022-12-02T01:58:03.309Z,29.40
2022-12-02T02:00:31.449Z,32.60
2022-12-02T02:02:59.506Z,28.50
2022-12-02T02:05:31.792Z,29.17
2022-12-02T02:08:05.198Z,26.97
2022-12-02T02:10:33.707Z,31.13
2022-12-02T02:13:03.723Z,31.23
2022-12-02T02:15:33.329Z,26.73
2022-12-02T02:18:05.167Z,25.47
2022-12-02T02:20:35.468Z,23.70
2022-12-02T02:23:17.921Z,25.80
2022-12-02T02:25:47.746Z,27.73
2022-12-02T02:28:19.519Z,27.40
2022-12-02T02:30:47.984Z,29.47
2022-12-02T02:33:17.016Z,26.53
2022-12-02T02:35:47.420Z,28.10
2022-12-02T02:38:20.600Z,27.60
2022-12-02T02:40:49.695Z,27.77
2022-12-02T02:43:21.049Z,30.67
2022-12-02T02:45:50.379Z,27.00
2022-12-02T02:48:19.937Z,27.00
2022-12-02T02:50:49.358Z,30.90
2022-12-02T02:53:23.557Z,28.37
2022-12-02T02:55:54.153Z,28.33
2022-12-02T02:58:25.072Z,27.80
2022-12-02T03:00:57.651Z,30.03
2022-12-02T03:03:28.936Z,30.60
2022-12-02T03:05:58.525Z,28.80
2022-12-02T03:08:31.956Z,27.33
2022-12-02T03:11:02.011Z,27.30
2022-12-02T03:13:32.256Z,32.53
2022-12-02T03:16:01.544Z,28.30
2022-12-02T03:18:29.981Z,29.70
2022-12-02T03:20:58.716Z,28.20
2022-12-02T03:23:28.899Z,31.80
2022-12-02T03:25:57.827Z,33.83
2022-12-02T03:28:26.052Z,30.87
2022-12-02T03:30:54.358Z,33.80
2022-12-02T03:33:22.696Z,35.73
2022-12-02T03:35:50.991Z,35.83
2022-12-02T03:38:19.292Z,31.13
2022-12-02T03:40:49.287Z,33.97
2022-12-02T03:43:17.385Z,36.03
2022-12-02T03:45:45.499Z,34.60
2022-12-02T03:48:14.572Z,33.73
2022-12-02T03:50:43.474Z,32.17
2022-12-02T03:53:11.520Z,32.07
2022-12-02T03:55:39.537Z,30.83
2022-12-02T03:58:09.543Z,30.47
2022-12-02T04:00:38.333Z,37.10
2022-12-02T04:03:07.251Z,31.67
2022-12-02T04:05:35.395Z,36.43
2022-12-02T04:08:03.400Z,29.73
2022-12-02T04:10:31.376Z,31.57
2022-12-02T04:12:59.467Z,35.73
2022-12-02T04:15:28.818Z,36.60
2022-12-02T04:17:56.868Z,35.67
2022-12-02T04:20:24.884Z,33.07
2022-12-02T04:22:52.919Z,34.80
2022-12-02T04:25:20.930Z,36.27
2022-12-02T04:27:48.994Z,31.40
2022-12-02T04:30:17.237Z,33.33
2022-12-02T04:32:46.555Z,38.50
2022-12-02T04:35:14.608Z,34.03
2022-12-02T04:37:42.609Z,36.77
2022-12-02T04:40:11.505Z,36.00
2022-12-02T04:42:39.518Z,37.93
2022-12-02T04:45:08.470Z,37.53
2022-12-02T04:47:36.439Z,37.33
2022-12-02T04:50:07.418Z,32.37
2022-12-02T04:52:35.421Z,36.80
2022-12-02T04:55:03.380Z,35.73
2022-12-02T04:57:32.071Z,39.07
2022-12-02T05:00:00.229Z,38.30
2022-12-02T05:02:28.725Z,39.83
2022-12-02T05:04:57.045Z,40.73
2022-12-02T05:07:26.733Z,41.97
2022-12-02T05:09:55.722Z,39.10
2022-12-02T05:12:24.237Z,40.40
2022-12-02T05:14:52.859Z,37.93
2022-12-02T05:17:21.368Z,38.77
2022-12-02T05:19:49.390Z,45.00
2022-12-02T05:22:17.586Z,34.20
2022-12-02T05:24:48.329Z,38.03
2022-12-02T05:27:17.300Z,39.30
2022-12-02T05:29:45.262Z,36.70
2022-12-02T05:32:13.278Z,36.70
2022-12-02T05:34:41.260Z,36.00
2022-12-02T05:37:09.321Z,39.10
2022-12-02T05:39:38.331Z,47.00
2022-12-02T05:42:14.437Z,42.43
2022-12-02T05:44:43.743Z,41.43
2022-12-02T05:47:13.597Z,37.53
2022-12-02T05:49:42.775Z,38.10
2022-12-02T05:52:21.015Z,32.50
2022-12-02T05:54:49.517Z,39.17
2022-12-02T05:57:28.165Z,33.80
2022-12-02T06:00:12.513Z,44.13
2022-12-02T06:02:43.875Z,41.87
2022-12-02T06:05:20.589Z,38.93
2022-12-02T06:07:53.326Z,38.77
2022-12-02T06:10:26.440Z,36.77
2022-12-02T06:13:00.206Z,39.53
2022-12-02T06:15:33.685Z,36.60
2022-12-02T06:18:01.721Z,42.60
2022-12-02T06:20:34.898Z,44.60
2022-12-02T06:23:04.177Z,47.20
2022-12-02T06:25:33.374Z,44.20
2022-12-02T06:28:11.073Z,44.23
2022-12-02T06:30:39.335Z,48.37
2022-12-02T06:33:22.747Z,55.47
2022-12-02T06:35:51.561Z,42.10
2022-12-02T06:38:27.550Z,50.93
2022-12-02T06:40:55.711Z,45.20
2022-12-02T06:43:28.235Z,49.27
2022-12-02T06:45:56.326Z,45.17
2022-12-02T06:48:31.857Z,51.17
2022-12-02T06:51:07.153Z,54.07
2022-12-02T06:53:37.096Z,50.37
2022-12-02T06:56:23.117Z,59.37
2022-12-02T06:58:58.053Z,55.40
2022-12-02T07:01:31.439Z,55.07
2022-12-02T07:04:24.775Z,56.50
2022-12-02T07:06:55.269Z,53.67
2022-12-02T07:09:30.987Z,55.80
2022-12-02T07:12:00.795Z,61.70
2022-12-02T07:14:38.066Z,50.60
2022-12-02T07:17:20.312Z,58.43
2022-12-02T07:19:51.362Z,58.80
2022-12-02T07:22:21.667Z,57.30
2022-12-02T07:24:57.216Z,54.17
2022-12-02T07:27:27.683Z,60.90
2022-12-02T07:29:57.971Z,61.77
2022-12-02T07:32:25.978Z,57.23
2022-12-02T07:34:54.227Z,54.70
2022-12-02T07:37:22.472Z,56.63
2022-12-02T07:39:50.583Z,56.50
2022-12-02T07:42:18.628Z,54.63
2022-12-02T07:44:46.715Z,58.10
2022-12-02T07:47:16.043Z,61.03
2022-12-02T07:49:44.035Z,65.57
2022-12-02T07:52:12.032Z,62.20
2022-12-02T07:54:40.080Z,68.00
2022-12-02T07:57:08.283Z,57.27
2022-12-02T07:59:36.319Z,56.70
